createdAt,value
2023-03-10T00:00:45.908Z,93.18
2023-03-10T00:05:47.554Z,93.15
2023-03-10T00:10:49.220Z,93.35
2023-03-10T00:15:50.820Z,93.79
2023-03-10T00:20:53.501Z,95.44
2023-03-10T00:26:00.663Z,95.82
2023-03-10T00:31:08.171Z,96.69
2023-03-10T00:36:18.817Z,97.87
2023-03-10T00:41:25.475Z,97.72
2023-03-10T00:46:28.185Z,99.43
2023-03-10T00:51:29.911Z,100.00
2023-03-10T00:56:31.487Z,100.00
2023-03-10T01:01:36.419Z,100.00
2023-03-10T01:06:38.188Z,100.00
2023-03-10T01:11:40.064Z,100.00
2023-03-10T01:16:41.959Z,100.00
2023-03-10T01:21:43.583Z,100.00
2023-03-10T01:26:45.473Z,100.00
2023-03-10T01:31:47.393Z,100.00
2023-03-10T01:36:49.233Z,100.00
2023-03-10T01:41:50.828Z,100.00
2023-03-10T01:46:54.153Z,100.00
2023-03-10T01:52:06.724Z,100.00
2023-03-10T01:57:08.682Z,100.00
2023-03-10T02:02:13.090Z,100.00
2023-03-10T02:07:18.834Z,100.00
2023-03-10T02:12:20.566Z,100.00
2023-03-10T02:17:25.001Z,100.00
2023-03-10T02:22:26.728Z,100.00
2023-03-10T02:27:33.682Z,100.00
2023-03-10T02:32:40.397Z,100.00
2023-03-10T02:37:42.263Z,100.00
2023-03-10T02:42:43.876Z,100.00
2023-03-10T02:47:45.535Z,100.00
2023-03-10T02:52:55.398Z,100.00
2023-03-10T02:57:57.086Z,100.00
2023-03-10T03:02:58.898Z,100.00
2023-03-10T03:08:00.622Z,100.00
2023-03-10T03:13:05.189Z,100.00
2023-03-10T03:18:07.324Z,100.00
2023-03-10T03:23:10.829Z,100.00
2023-03-10T03:28:13.142Z,100.00
2023-03-10T03:33:15.645Z,100.00
2023-03-10T03:38:18.862Z,100.00
2023-03-10T03:43:20.889Z,100.00
2023-03-10T03:48:23.153Z,100.00
2023-03-10T03:53:25.928Z,100.00
2023-03-10T03:58:27.618Z,100.00
2023-03-10T04:03:29.384Z,100.00
2023-03-10T04:08:31.474Z,100.00
2023-03-10T04:13:33.141Z,100.00
2023-03-10T04:18:35.991Z,100.00
2023-03-10T04:23:42.048Z,100.00
2023-03-10T04:28:45.507Z,100.00
2023-03-10T04:33:50.669Z,100.00
2023-03-10T04:38:53.086Z,100.00
2023-03-10T04:43:57.349Z,100.00
2023-03-10T04:48:59.217Z,100.00
2023-03-10T04:54:01.191Z,100.00
2023-03-10T04:59:06.265Z,100.00
2023-03-10T05:04:08.159Z,100.00
2023-03-10T05:09:09.982Z,100.00
2023-03-10T05:14:12.838Z,100.00
2023-03-10T05:19:14.663Z,100.00
2023-03-10T05:24:16.970Z,100.00
2023-03-10T05:29:20.836Z,100.00
2023-03-10T05:34:27.826Z,100.00
2023-03-10T05:39:32.610Z,100.00
2023-03-10T05:44:38.555Z,100.00
2023-03-10T05:49:41.461Z,100.00
2023-03-10T05:54:43.713Z,100.00
2023-03-10T05:59:47.666Z,100.00
2023-03-10T06:04:49.842Z,99.82
2023-03-10T06:09:53.976Z,100.00
2023-03-10T06:14:55.565Z,99.69
2023-03-10T06:19:57.301Z,100.00
2023-03-10T06:24:58.822Z,100.00
2023-03-10T06:30:00.554Z,100.00
2023-03-10T06:35:02.164Z,100.00
2023-03-10T06:40:04.494Z,100.00
2023-03-10T06:45:07.681Z,100.00
2023-03-10T06:50:10.632Z,100.00
2023-03-10T06:55:13.783Z,100.00
2023-03-10T07:00:16.086Z,100.00
2023-03-10T07:05:17.648Z,100.00
2023-03-10T07:10:19.335Z,99.51
2023-03-10T07:15:22.740Z,96.92
2023-03-10T07:20:24.536Z,98.63
2023-03-10T07:25:26.333Z,100.00
2023-03-10T07:30:27.921Z,100.00
2023-03-10T07:35:29.506Z,100.00
2023-03-10T07:40:31.039Z,100.00
2023-03-10T07:45:33.563Z,100.00
2023-03-10T07:50:35.091Z,100.00
2023-03-10T07:55:38.442Z,100.00
2023-03-10T08:00:40.518Z,100.00
2023-03-10T08:05:42.445Z,100.00
2023-03-10T08:10:44.288Z,100.00
2023-03-10T08:15:45.840Z,100.00
2023-03-10T08:20:47.376Z,100.00
2023-03-10T08:25:48.958Z,100.00
2023-03-10T08:31:03.727Z,100.00
2023-03-10T08:36:15.337Z,100.00
2023-03-10T08:41:21.695Z,100.00
2023-03-10T08:46:25.171Z,100.00
2023-03-10T08:51:28.214Z,100.00
2023-03-10T08:56:30.020Z,100.00
2023-03-10T09:01:34.258Z,100.00
2023-03-10T09:06:36.913Z,100.00
2023-03-10T09:11:40.410Z,100.00
2023-03-10T09:16:42.118Z,100.00
2023-03-10T09:21:43.733Z,100.00
2023-03-10T09:26:45.775Z,100.00
2023-03-10T09:31:48.309Z,100.00
2023-03-10T09:36:50.042Z,100.00
2023-03-10T09:42:36.355Z,100.00
2023-03-10T09:47:53.175Z,100.00
2023-03-10T09:53:25.976Z,100.00
2023-03-10T09:58:30.718Z,100.00
2023-03-10T10:03:37.276Z,100.00
2023-03-10T10:09:03.506Z,100.00
2023-03-10T10:14:29.472Z,100.00
2023-03-10T10:19:37.119Z,100.00
2023-03-10T10:24:40.609Z,100.00
2023-03-10T10:29:46.924Z,100.00
2023-03-10T10:34:49.277Z,100.00
2023-03-10T10:39:52.990Z,100.00
2023-03-10T10:45:04.050Z,100.00
2023-03-10T10:50:18.245Z,100.00
2023-03-10T10:55:29.025Z,100.00
2023-03-10T11:00:39.751Z,100.00
2023-03-10T11:05:41.364Z,100.00
2023-03-10T11:10:43.913Z,100.00
2023-03-10T11:15:55.925Z,100.00
2023-03-10T11:21:07.165Z,100.00
2023-03-10T11:26:22.422Z,100.00
2023-03-10T11:31:46.004Z,100.00
2023-03-10T11:37:00.826Z,100.00
2023-03-10T11:42:29.597Z,100.00
2023-03-10T11:47:44.912Z,100.00
2023-03-10T11:52:50.815Z,100.00
2023-03-10T11:57:57.828Z,100.00
2023-03-10T12:03:18.113Z,100.00
2023-03-10T12:08:25.319Z,100.00
2023-03-10T12:13:55.705Z,100.00
2023-03-10T12:18:58.081Z,100.00
2023-03-10T12:24:02.264Z,100.00
2023-03-10T12:29:32.367Z,100.00
2023-03-10T12:34:33.919Z,100.00
2023-03-10T12:39:43.603Z,100.00
2023-03-10T12:44:51.304Z,100.00
2023-03-10T12:50:22.901Z,100.00
2023-03-10T12:55:27.744Z,100.00
2023-03-10T13:00:40.784Z,100.00
2023-03-10T13:05:57.565Z,100.00
2023-03-10T13:11:00.401Z,100.00
2023-03-10T13:16:06.922Z,100.00
2023-03-10T13:21:42.139Z,100.00
2023-03-10T13:26:43.667Z,100.00
2023-03-10T13:31:55.723Z,100.00
2023-03-10T13:37:10.037Z,100.00
2023-03-10T13:42:40.990Z,100.00
2023-03-10T13:47:44.456Z,100.00
2023-03-10T13:52:54.703Z,100.00
2023-03-10T13:57:57.990Z,100.00
2023-03-10T14:02:59.631Z,100.00
2023-03-10T14:08:01.326Z,100.00
2023-03-10T14:13:02.857Z,100.00
2023-03-10T14:18:07.472Z,100.00
2023-03-10T14:23:26.545Z,100.00
2023-03-10T14:28:31.318Z,100.00
2023-03-10T14:33:33.028Z,100.00
2023-03-10T14:38:34.614Z,100.00
2023-03-10T14:43:36.166Z,100.00
2023-03-10T14:48:41.800Z,100.00
2023-03-10T14:53:43.804Z,100.00
2023-03-10T14:58:49.608Z,100.00
2023-03-10T15:03:51.391Z,100.00
2023-03-10T15:08:52.997Z,100.00
2023-03-10T15:13:54.502Z,100.00
2023-03-10T15:18:56.021Z,100.00
2023-03-10T15:23:57.606Z,100.00
2023-03-10T15:28:59.098Z,100.00
2023-03-10T15:34:00.658Z,100.00
2023-03-10T15:39:02.441Z,100.00
2023-03-10T15:44:04.787Z,100.00
2023-03-10T15:49:06.765Z,100.00
2023-03-10T15:54:12.377Z,99.13
2023-03-10T15:59:16.103Z,98.50
2023-03-10T16:04:18.298Z,97.67
2023-03-10T16:09:19.829Z,97.53
2023-03-10T16:14:21.422Z,96.38
2023-03-10T16:19:23.364Z,96.91
2023-03-10T16:24:25.029Z,96.81
2023-03-10T16:29:26.611Z,95.96
2023-03-10T16:34:28.297Z,94.10
2023-03-10T16:39:34.883Z,92.19
2023-03-10T16:44:36.398Z,92.69
2023-03-10T16:49:38.029Z,92.10
2023-03-10T16:54:39.624Z,92.73
2023-03-10T16:59:42.636Z,92.01
2023-03-10T17:04:45.299Z,90.37
2023-03-10T17:09:46.873Z,88.29
2023-03-10T17:14:50.755Z,88.10
2023-03-10T17:19:52.512Z,90.25
2023-03-10T17:24:55.322Z,92.09
2023-03-10T17:29:56.835Z,97.36
2023-03-10T17:34:58.499Z,100.00
2023-03-10T17:40:00.138Z,100.00
2023-03-10T17:45:05.779Z,100.00
2023-03-10T17:50:08.988Z,100.00
2023-03-10T17:55:10.878Z,100.00
2023-03-10T18:00:13.174Z,99.71
2023-03-10T18:05:14.765Z,98.17
2023-03-10T18:10:17.324Z,96.21
2023-03-10T18:15:19.042Z,97.49
2023-03-10T18:20:20.684Z,98.64
2023-03-10T18:25:22.199Z,98.54
2023-03-10T18:30:24.684Z,97.74
2023-03-10T18:35:28.692Z,96.15
2023-03-10T18:40:30.225Z,96.40
2023-03-10T18:45:33.884Z,95.67
2023-03-10T18:50:35.416Z,96.40
2023-03-10T18:55:36.934Z,100.00
2023-03-10T19:00:38.658Z,100.00
2023-03-10T19:05:41.310Z,100.00
2023-03-10T19:10:42.912Z,100.00
2023-03-10T19:15:44.517Z,100.00
2023-03-10T19:20:46.519Z,99.89
2023-03-10T19:25:48.043Z,97.51
2023-03-10T19:30:49.644Z,97.00
2023-03-10T19:36:03.070Z,93.44
2023-03-10T19:41:05.838Z,89.62
2023-03-10T19:46:11.492Z,88.62
2023-03-10T19:51:27.910Z,87.63
2023-03-10T19:56:35.082Z,87.45
2023-03-10T20:01:39.037Z,87.15
2023-03-10T20:06:40.710Z,86.16
2023-03-10T20:11:42.220Z,84.61
2023-03-10T20:16:43.728Z,84.98
2023-03-10T20:21:46.396Z,84.92
2023-03-10T20:26:48.842Z,86.98
2023-03-10T20:31:50.493Z,88.55
2023-03-10T20:36:52.115Z,88.80
2023-03-10T20:41:53.610Z,88.98
2023-03-10T20:46:55.179Z,89.42
2023-03-10T20:51:56.712Z,90.04
2023-03-10T20:56:58.241Z,90.32
2023-03-10T21:01:59.842Z,89.67
2023-03-10T21:07:01.378Z,86.88
2023-03-10T21:12:03.321Z,85.60
2023-03-10T21:17:05.368Z,85.35
2023-03-10T21:22:07.032Z,85.13
2023-03-10T21:27:08.626Z,85.90
2023-03-10T21:32:10.152Z,86.45
2023-03-10T21:37:12.067Z,85.24
2023-03-10T21:42:14.568Z,84.28
2023-03-10T21:47:16.404Z,84.66
2023-03-10T21:52:18.238Z,84.23
2023-03-10T21:57:19.773Z,83.79
2023-03-10T22:02:28.007Z,84.68
2023-03-10T22:07:29.495Z,84.61
2023-03-10T22:12:31.098Z,85.01
2023-03-10T22:17:33.610Z,84.78
2023-03-10T22:22:35.151Z,85.61
2023-03-10T22:27:36.666Z,85.81
2023-03-10T22:32:38.233Z,85.71
2023-03-10T22:37:40.603Z,85.85
2023-03-10T22:42:43.668Z,85.11
2023-03-10T22:47:45.524Z,85.76
2023-03-10T22:52:47.153Z,85.24
2023-03-10T22:57:48.652Z,85.95
2023-03-10T23:02:50.779Z,86.55
2023-03-10T23:07:53.503Z,86.56
2023-03-10T23:12:57.890Z,86.32
2023-03-10T23:17:59.855Z,86.42
2023-03-10T23:23:03.753Z,86.82
2023-03-10T23:28:07.247Z,87.16
2023-03-10T23:33:12.572Z,87.09
2023-03-10T23:38:14.145Z,87.98
2023-03-10T23:43:15.759Z,88.70
2023-03-10T23:48:18.384Z,88.48
2023-03-10T23:53:20.814Z,88.42
2023-03-10T23:58:22.769Z,88.87
